Flight Track Log - Related Links

Times and Time Zones

All times are in EDT time to prevent confusion due to time zone crossing. See the AWI3780 flight status page for this flight to view local times or setup timezone preferences in your user account.

Time Position Orientation Groundspeed Altitude Reporting Facility
EDT Latitude Longitude Course Direction KTS MPH feet Rate Location/Type
Wed 04:31:00 PM 44.0448 -73.3087 196° South  Level FlightAware Approximate
Wed 04:32:00 PM 43.9046 -73.3649 196° South  Level FlightAware Approximate
Wed 04:32:16 PM 44.3175 -73.1656 196° South 192 221 9,200  Level Boston Center
Wed 04:33:00 PM 43.7635 -73.4171 195° South  Level FlightAware Approximate
Wed 04:33:16 PM 44.2631 -73.1908 198° South 204 235 11,400  Level Boston Center
Wed 04:34:00 PM 43.6224 -73.4690 195° South  Level FlightAware Approximate
Wed 04:34:16 PM 44.1942 -73.2189 196° South 244 281 13,900  Level Boston Center
Wed 04:35:00 PM 43.4808 -73.5176 194° South  Level FlightAware Approximate
Wed 04:35:16 PM 44.1231 -73.2469 196° South 263 303 16,500  Level Boston Center
Wed 04:36:00 PM 43.3394 -73.5676 196° South  Level FlightAware Approximate
Wed 04:36:16 PM 44.0478 -73.2806 198° South 280 322 18,700  Level Boston Center
Wed 04:37:00 PM 43.1992 -73.6236 196° South  Level FlightAware Approximate
Wed 04:37:16 PM 43.9683 -73.3111 195° South 292 336 20,700  Level Boston Center
Wed 04:38:16 PM 43.8869 -73.3475 198° South 303 349 22,500 1,800 Climbing Boston Center
Wed 04:39:16 PM 43.8033 -73.3808 196° South 303 349 24,300 1,600 Climbing Boston Center
Wed 04:40:16 PM 43.7197 -73.4139 196° South 308 354 25,700 200 Climbing Boston Center
Wed 04:41:16 PM 43.6317 -73.4497 196° South 313 360 24,700 -800 Descending Boston Center
Wed 04:42:16 PM 43.5461 -73.4856 197° South 324 373 24,100 -350 Descending Boston Center
Wed 04:43:16 PM 43.4603 -73.5183 195° South 324 373 24,000 -50 Descending Boston Center
Wed 04:44:16 PM 43.3744 -73.5542 197° South 324 373 24,000  Level Boston Center
Wed 04:45:16 PM 43.2928 -73.5839 195° South 319 367 24,000  Level Boston Center
Wed 04:46:16 PM 43.2114 -73.6194 198° South 319 367 24,000  Level Boston Center
Wed 04:47:16 PM 43.1339 -73.6492 196° South 319 367 24,000  Level Boston Center
Wed 04:48:16 PM 43.0500 -73.6844 197° South 324 373 24,000  Level Boston Center
Wed 04:49:16 PM 42.9642 -73.7169 195° South 324 373 24,000  Level Boston Center
Wed 04:50:16 PM 42.8806 -73.7547 198° South 324 373 24,000  Level Boston Center
Wed 04:51:16 PM 42.7947 -73.7897 197° South 324 373 24,000  Level Boston Center
Wed 04:52:28 PM 42.7125 -73.8700 216° Southwest 308 354 24,000  Level Boston Center
Wed 04:53:28 PM 42.6608 -73.9789 237° Southwest 308 354 24,000  Level Boston Center
Wed 04:54:28 PM 42.6117 -74.0819 237° Southwest 315 362 24,000  Level Boston Center
Wed 04:55:28 PM 42.5642 -74.1850 238° Southwest 326 375 24,000  Level Boston Center
Wed 04:56:28 PM 42.5147 -74.2850 236° Southwest 326 375 24,000  Level Boston Center
Wed 04:57:28 PM 42.4672 -74.3850 237° Southwest 326 375 24,000  Level Boston Center
Wed 04:58:28 PM 42.4153 -74.4817 234° Southwest 326 375 24,000  Level Boston Center
Wed 04:59:28 PM 42.3656 -74.5814 236° Southwest 326 375 24,000 -150 Level Boston Center
Wed 05:00:28 PM 42.3200 -74.6781 238° Southwest 326 375 23,700 -650 Descending Boston Center
Wed 05:01:28 PM 42.2722 -74.7744 236° Southwest 326 375 22,700 -971 Descending Boston Center
Wed 05:03:52 PM 42.1506 -74.9806 232° Southwest 312 359 20,400 -790 Descending New York Center
Wed 05:04:53 PM 42.0797 -75.0375 211° Southwest 301 346 20,000 -694 Descending New York Center
Wed 05:05:53 PM 42.0047 -75.1025 213° Southwest 301 346 19,000 -508 Descending New York Center
Wed 05:06:51 PM 41.9403 -75.1542 211° Southwest 291 335 19,000  Level New York Center
Wed 05:07:52 PM 41.8800 -75.2058 213° Southwest 286 329 19,000 -98 Level New York Center
Wed 05:08:53 PM 41.8114 -75.2597 210° Southwest 286 329 18,800 -1,008 Descending New York Center
Wed 05:09:51 PM 41.7406 -75.3189 212° Southwest 286 329 17,000 -1,664 Descending New York Center
Wed 05:10:52 PM 41.6761 -75.3700 211° Southwest 280 322 15,500 -1,438 Descending New York Center
Wed 05:11:52 PM 41.6158 -75.4158 210° Southwest 275 316 14,100 -1,438 Descending New York Center
Wed 05:12:53 PM 41.5600 -75.4617 212° Southwest 264 304 12,600 -1,068 Descending New York Center
Wed 05:13:50 PM 41.5019 -75.5075 211° Southwest 258 297 12,000 -254 Descending New York Center
Wed 05:14:51 PM 41.4331 -75.5636 211° Southwest 258 297 12,100 50 Climbing New York Center
Wed 05:15:51 PM 41.3750 -75.6092 210° Southwest 263 303 12,100 -50 Level New York Center
Wed 05:16:52 PM 41.3275 -75.6472 211° Southwest 251 289 12,000 -50 Descending New York Center
Wed 05:17:52 PM 41.2761 -75.6850 209° Southwest 229 264 12,000 50 Level New York Center
Wed 05:18:53 PM 41.2156 -75.6889 183° South 217 250 12,100 51 Climbing New York Center
Wed 05:19:50 PM 41.1489 -75.6894 180° South 223 257 12,100  Level New York Center
Wed 05:20:51 PM 41.0883 -75.6878 179° South 223 257 12,100  Level New York Center
Wed 05:21:51 PM 41.0281 -75.6889 181° South 218 251 12,100 -50 Level New York Center
Wed 05:22:51 PM 40.9697 -75.6875 179° South 218 251 12,000  Descending New York Center
Wed 05:23:51 PM 40.9092 -75.6886 181° South 223 257 12,100 50 Climbing New York Center
Wed 05:24:52 PM 40.8406 -75.6892 180° South 223 257 12,100  Level New York Center
Wed 05:25:53 PM 40.7758 -75.6872 179° South 231 266 12,100 -298 Level New York Center
Wed 05:26:53 PM 40.7197 -75.6858 179° South 231 266 11,500 -1,017 Descending New York Center
Wed 05:27:51 PM 40.6572 -75.6869 181° South 231 266 10,100 -756 Descending New York Center
Wed 05:28:52 PM 40.5886 -75.6819 177° South 231 266 10,000 -94 Descending New York Center
Wed 05:29:59 PM 40.5394 -75.6081 131° Southeast 264 304 9,900  Descending FAA TRACON SMA TRACON (SMA)
Wed 05:30:19 PM 40.5236 -75.5742 122° Southeast 269 310 10,000 154 Climbing FAA TRACON SMA TRACON (SMA)
Wed 05:30:38 PM 40.5103 -75.5486 124° Southeast 271 312 10,000 -154 Level FAA TRACON SMA TRACON (SMA)
Wed 05:30:58 PM 40.4967 -75.5214 123° Southeast 269 310 9,900  Descending FAA TRACON SMA TRACON (SMA)
Wed 05:31:18 PM 40.4819 -75.4925 124° Southeast 266 306 10,000  Climbing FAA TRACON SMA TRACON (SMA)
Wed 05:31:39 PM 40.4697 -75.4692 125° Southeast 263 303 9,900 -146 Descending FAA TRACON SMA TRACON (SMA)
Wed 05:31:59 PM 40.4583 -75.4450 122° Southeast 261 300 9,900 150 Level FAA TRACON SMA TRACON (SMA)
Wed 05:32:19 PM 40.4322 -75.4372 167° South 226 260 10,000  Climbing FAA TRACON SMA TRACON (SMA)
Wed 05:32:38 PM 40.4136 -75.4361 177° South 218 251 9,900 -615 Descending FAA TRACON SMA TRACON (SMA)
Wed 05:32:58 PM 40.3967 -75.4353 178° South 216 249 9,600 -900 Descending FAA TRACON SMA TRACON (SMA)
Wed 05:33:18 PM 40.3717 -75.4339 178° South 217 250 9,300 -878 Descending FAA TRACON SMA TRACON (SMA)
Wed 05:33:39 PM 40.3525 -75.4339 180° South 218 251 9,000 -878 Descending FAA TRACON SMA TRACON (SMA)
Wed 05:33:59 PM 40.3364 -75.4333 178° South 209 241 8,700 -900 Descending FAA TRACON SMA TRACON (SMA)
Wed 05:34:19 PM 40.3139 -75.4397 192° South 204 235 8,400 -923 Descending FAA TRACON SMA TRACON (SMA)
Wed 05:34:38 PM 40.2967 -75.4414 184° South 198 228 8,100 -1,077 Descending FAA TRACON SMA TRACON (SMA)
Wed 05:34:58 PM 40.2794 -75.4458 191° South 205 236 7,700 -1,200 Descending FAA TRACON SMA TRACON (SMA)
Wed 05:35:18 PM 40.2572 -75.4397 168° South 227 261 7,300 -750 Descending FAA TRACON SMA TRACON (SMA)
Wed 05:35:38 PM 40.2447 -75.4161 125° Southeast 264 304 7,200 -439 Descending FAA TRACON SMA TRACON (SMA)
Wed 05:35:59 PM 40.2450 -75.3867 89° East 258 297 7,000 -439 Descending FAA TRACON SMA TRACON (SMA)
Wed 05:36:19 PM 40.2564 -75.3517 67° East 276 318 6,900  Descending FAA TRACON SMA TRACON (SMA)
Wed 05:36:39 PM 40.2664 -75.3233 65° Northeast 273 314 7,000  Climbing FAA TRACON SMA TRACON (SMA)
Wed 05:36:58 PM 40.2747 -75.2933 70° East 278 320 6,900  Descending FAA TRACON SMA TRACON (SMA)
Wed 05:37:18 PM 40.2656 -75.2603 110° East 243 280 7,000 146 Climbing FAA TRACON SMA TRACON (SMA)
Wed 05:37:39 PM 40.2497 -75.2481 149° Southeast 228 262 7,000 -146 Level FAA TRACON SMA TRACON (SMA)
Wed 05:37:59 PM 40.2322 -75.2428 167° South 206 237 6,900 -154 Descending FAA TRACON SMA TRACON (SMA)
Wed 05:38:18 PM 40.2122 -75.2381 170° South 196 226 6,900 154 Level FAA TRACON SMA TRACON (SMA)
Wed 05:38:38 PM 40.1956 -75.2325 166° South 194 223 7,000 -150 Climbing FAA TRACON SMA TRACON (SMA)
Wed 05:38:58 PM 40.1825 -75.2306 174° South 189 217 6,800 -585 Descending FAA TRACON SMA TRACON (SMA)
Wed 05:39:19 PM 40.1617 -75.2286 176° South 186 214 6,600 -732 Descending FAA TRACON SMA TRACON (SMA)
Wed 05:39:39 PM 40.1444 -75.2283 179° South 180 207 6,300 -900 Descending FAA TRACON SMA TRACON (SMA)
Wed 05:39:59 PM 40.1292 -75.2275 178° South 179 206 6,000 -600 Descending FAA TRACON SMA TRACON (SMA)
Wed 05:40:19 PM 40.1122 -75.2267 178° South 177 204 5,900  Descending FAA TRACON SMA TRACON (SMA)
Wed 05:40:38 PM 40.0961 -75.2261 178° South 169 194 6,000  Climbing FAA TRACON SMA TRACON (SMA)
Wed 05:40:58 PM 40.0825 -75.2256 178° South 166 191 5,900  Descending FAA TRACON SMA TRACON (SMA)
Wed 05:41:19 PM 40.0653 -75.2186 163° South 179 206 6,000 146 Climbing FAA TRACON SMA TRACON (SMA)
Wed 05:41:39 PM 40.0506 -75.2117 160° South 176 203 6,000  Level FAA TRACON SMA TRACON (SMA)
Wed 05:41:59 PM 40.0369 -75.2069 165° South 179 206 6,000  Level FAA TRACON SMA TRACON (SMA)
Wed 05:42:18 PM 40.0211 -75.1978 156° South 182 209 6,000  Level FAA TRACON SMA TRACON (SMA)
Wed 05:42:39 PM 40.0025 -75.1889 160° South 185 213 6,000  Level FAA TRACON SMA TRACON (SMA)
Wed 05:42:59 PM 39.9881 -75.1803 155° Southeast 185 213 6,000  Level FAA TRACON SMA TRACON (SMA)
Wed 05:43:19 PM 39.9789 -75.1581 118° Southeast 232 267 6,000  Level FAA TRACON SMA TRACON (SMA)
Wed 05:43:38 PM 39.9828 -75.1250 81° East 260 299 6,000  Level FAA TRACON SMA TRACON (SMA)
Wed 05:43:58 PM 39.9881 -75.0972 76° East 254 292 6,000  Level FAA TRACON SMA TRACON (SMA)
Wed 05:44:18 PM 39.9942 -75.0706 73° East 251 289 6,000  Level FAA TRACON SMA TRACON (SMA)
Wed 05:44:39 PM 40.0017 -75.0367 74° East 252 290 6,000  Level FAA TRACON SMA TRACON (SMA)
Wed 05:44:59 PM 40.0081 -75.0103 72° East 254 292 6,000 -150 Level FAA TRACON SMA TRACON (SMA)
Wed 05:45:19 PM 40.0150 -74.9778 74° East 255 293 5,900  Descending FAA TRACON SMA TRACON (SMA)
Wed 05:45:38 PM 40.0217 -74.9475 74° East 256 295 6,000  Climbing FAA TRACON SMA TRACON (SMA)
Wed 05:45:59 PM 40.0269 -74.9192 76° East 255 293 5,900  Descending FAA TRACON SMA TRACON (SMA)
Wed 05:46:19 PM 40.0339 -74.8931 71° East 254 292 6,000 150 Climbing FAA TRACON SMA TRACON (SMA)
Wed 05:46:39 PM 40.0408 -74.8606 74° East 252 290 6,000 -450 Level FAA TRACON SMA TRACON (SMA)
Wed 05:46:59 PM 40.0467 -74.8333 74° East 245 282 5,700 -923 Descending FAA TRACON SMA TRACON (SMA)
Wed 05:47:18 PM 40.0525 -74.8078 73° East 241 277 5,400 -1,077 Descending FAA TRACON SMA TRACON (SMA)
Wed 05:47:38 PM 40.0608 -74.7783 70° East 241 277 5,000 -600 Descending FAA TRACON SMA TRACON (SMA)
Wed 05:47:58 PM 40.0589 -74.7525 96° East 208 239 5,000  Level FAA TRACON SMA TRACON (SMA)
Wed 05:48:19 PM 40.0464 -74.7425 149° Southeast 153 176 5,000  Level FAA TRACON SMA TRACON (SMA)
Wed 05:48:39 PM 40.0319 -74.7525 208° Southwest 151 174 5,000 -150 Level FAA TRACON SMA TRACON (SMA)
Wed 05:48:59 PM 40.0244 -74.7631 227° Southwest 156 180 4,900 -308 Descending FAA TRACON SMA TRACON (SMA)
Wed 05:49:18 PM 40.0144 -74.7778 228° Southwest 153 176 4,800 -615 Descending FAA TRACON SMA TRACON (SMA)
Wed 05:49:38 PM 40.0047 -74.7911 226° Southwest 159 183 4,500 -1,024 Descending FAA TRACON SMA TRACON (SMA)
Wed 05:49:59 PM 39.9939 -74.8058 226° Southwest 163 188 4,100 -732 Descending FAA TRACON SMA TRACON (SMA)
Wed 05:50:19 PM 39.9822 -74.8217 226° Southwest 167 192 4,000 -150 Descending FAA TRACON SMA TRACON (SMA)
Wed 05:50:39 PM 39.9700 -74.8392 228° Southwest 169 194 4,000 -300 Level FAA TRACON SMA TRACON (SMA)
Wed 05:50:59 PM 39.9597 -74.8531 226° Southwest 170 196 3,800 -769 Descending FAA TRACON SMA TRACON (SMA)
Wed 05:51:18 PM 39.9517 -74.8683 235° Southwest 168 193 3,500 -923 Descending FAA TRACON SMA TRACON (SMA)
Wed 05:51:38 PM 39.9444 -74.8836 238° Southwest 166 191 3,200 -732 Descending FAA TRACON SMA TRACON (SMA)
Wed 05:51:59 PM 39.9375 -74.9050 247° West 168 193 3,000 -439 Descending FAA TRACON SMA TRACON (SMA)
Wed 05:52:19 PM 39.9344 -74.9228 257° West 162 186 2,900  Descending FAA TRACON SMA TRACON (SMA)
Wed 05:52:39 PM 39.9317 -74.9417 259° West 167 192 3,000 154 Climbing FAA TRACON SMA TRACON (SMA)
Wed 05:52:58 PM 39.9267 -74.9644 254° West 169 194 3,000 -154 Level FAA TRACON SMA TRACON (SMA)
Wed 05:53:18 PM 39.9228 -74.9822 254° West 171 197 2,900  Descending FAA TRACON SMA TRACON (SMA)
Wed 05:53:38 PM 39.9189 -75.0014 255° West 171 197 3,000 150 Climbing FAA TRACON SMA TRACON (SMA)
Wed 05:53:58 PM 39.9144 -75.0242 256° West 168 193 3,000 -146 Level FAA TRACON SMA TRACON (SMA)
Wed 05:54:19 PM 39.9111 -75.0425 257° West 169 194 2,900 -585 Descending FAA TRACON SMA TRACON (SMA)
Wed 05:54:39 PM 39.9072 -75.0603 254° West 168 193 2,600 -900 Descending FAA TRACON SMA TRACON (SMA)

Login

Don't have an account? Register now (free) for customized features, flight alerts, and more!